createdAt,value
2017-09-14T00:04:35.149Z,"    0"
2017-09-14T00:09:31.063Z,"    0"
2017-09-14T00:14:26.937Z,"    0"
2017-09-14T00:19:22.522Z,"    0"
2017-09-14T00:24:18.712Z,"    0"
2017-09-14T00:29:14.484Z,"    0"
2017-09-14T00:34:11.358Z,"    0"
2017-09-14T00:39:07.191Z,"    0"
2017-09-14T00:44:04.087Z,"    0"
2017-09-14T00:49:01.449Z,"    0"
2017-09-14T00:53:58.529Z,"    0"
2017-09-14T00:58:55.127Z,"    0"
2017-09-14T01:03:50.716Z,"    0"
2017-09-14T01:08:47.323Z,"    0"
2017-09-14T01:13:43.114Z,"    0"
2017-09-14T01:18:38.941Z,"    0"
2017-09-14T01:23:34.662Z,"    0"
2017-09-14T01:28:30.281Z,"    0"
2017-09-14T01:33:27.097Z,"    0"
2017-09-14T01:38:23.642Z,"    0"
2017-09-14T01:43:19.316Z,"    0"
2017-09-14T01:48:15.495Z,"    0"
2017-09-14T01:53:12.163Z,"    0"
2017-09-14T01:58:07.472Z,"    0"
2017-09-14T02:03:04.602Z,"    0"
2017-09-14T02:08:00.217Z,"    0"
2017-09-14T02:12:56.174Z,"    0"
2017-09-14T02:17:52.119Z,"    0"
2017-09-14T02:22:48.037Z,"    0"
2017-09-14T02:27:45.942Z,"    0"
2017-09-14T02:32:42.379Z,"    0"
2017-09-14T02:37:38.396Z,"    0"
2017-09-14T02:42:35.181Z,"    0"
2017-09-14T02:47:30.934Z,"    0"
2017-09-14T02:52:26.713Z,"    0"
2017-09-14T02:57:22.662Z,"    0"
2017-09-14T03:02:19.627Z,"    0"
2017-09-14T03:07:15.096Z,"    0"
2017-09-14T03:12:10.457Z,"    0"
2017-09-14T03:17:07.331Z,"    0"
2017-09-14T03:22:03.014Z,"    0"
2017-09-14T03:26:59.743Z,"    0"
2017-09-14T03:31:55.374Z,"    0"
2017-09-14T03:36:51.069Z,"    0"
2017-09-14T03:41:47.112Z,"    0"
2017-09-14T03:46:42.902Z,"    0"
2017-09-14T03:51:38.910Z,"    0"
2017-09-14T03:56:36.816Z,"    0"
2017-09-14T04:01:32.165Z,"    0"
2017-09-14T04:06:28.113Z,"    0"
2017-09-14T04:11:24.147Z,"    0"
2017-09-14T04:16:19.732Z,"    0"
2017-09-14T04:21:15.595Z,"    0"
2017-09-14T04:26:11.144Z,"    0"
2017-09-14T04:31:06.959Z,"    4"
2017-09-14T04:36:02.791Z,"    4"
2017-09-14T04:40:58.518Z,"    8"
2017-09-14T04:45:54.541Z,"   20"
2017-09-14T04:50:50.336Z,"   44"
2017-09-14T04:55:46.034Z,"   80"
2017-09-14T05:00:41.949Z,"  128"
2017-09-14T05:05:37.553Z,"  196"
2017-09-14T05:10:34.373Z,"  312"
2017-09-14T05:15:30.286Z,"  360"
2017-09-14T05:20:26.957Z,"  476"
2017-09-14T05:25:22.756Z,"  740"
2017-09-14T05:30:18.685Z," 1088"
2017-09-14T05:35:15.810Z," 1812"
2017-09-14T05:40:12.560Z," 2488"
2017-09-14T05:45:08.502Z," 2772"
2017-09-14T05:50:04.910Z," 2268"
2017-09-14T05:55:01.436Z," 1896"
2017-09-14T05:59:58.261Z," 1692"
2017-09-14T06:04:53.796Z,"  980"
2017-09-14T06:09:50.343Z,"  580"
2017-09-14T06:14:46.967Z," 1412"
2017-09-14T06:19:42.445Z," 1792"
2017-09-14T06:24:38.491Z," 2084"
2017-09-14T06:29:34.259Z," 4540"
2017-09-14T06:34:32.398Z," 4276"
2017-09-14T06:39:27.668Z," 2216"
2017-09-14T06:44:24.426Z," 3304"
2017-09-14T06:49:21.054Z," 4320"
2017-09-14T06:54:16.740Z," 3004"
2017-09-14T06:59:12.517Z," 2436"
2017-09-14T07:04:08.053Z," 2452"
2017-09-14T07:09:04.023Z," 3100"
2017-09-14T07:14:01.022Z," 2320"
2017-09-14T07:18:57.044Z," 2396"
2017-09-14T07:23:53.025Z," 1456"
2017-09-14T07:28:48.583Z," 1568"
2017-09-14T07:33:44.184Z," 1736"
2017-09-14T07:38:39.824Z," 1292"
2017-09-14T07:43:36.405Z," 1096"
2017-09-14T07:48:31.603Z," 1404"
2017-09-14T07:53:27.349Z," 1804"
2017-09-14T07:58:22.903Z," 2768"
2017-09-14T08:03:19.649Z," 2192"
2017-09-14T08:08:15.461Z," 3196"
2017-09-14T08:13:11.309Z," 4716"
2017-09-14T08:18:08.091Z," 7100"
2017-09-14T08:23:04.049Z," 4452"
2017-09-14T08:28:00.499Z," 3392"
2017-09-14T08:32:55.918Z," 5168"
2017-09-14T08:37:52.004Z," 4180"
2017-09-14T08:42:47.946Z," 2944"
2017-09-14T08:47:43.898Z," 2516"
2017-09-14T08:52:39.491Z," 2504"
2017-09-14T08:57:36.220Z," 1752"
2017-09-14T09:02:32.859Z," 3776"
2017-09-14T09:07:29.917Z," 3956"
2017-09-14T09:12:27.184Z," 2232"
2017-09-14T09:17:22.569Z," 1692"
2017-09-14T09:22:19.368Z," 2472"
2017-09-14T09:27:15.085Z," 2756"
2017-09-14T09:32:11.752Z," 4700"
2017-09-14T09:37:07.409Z," 8600"
2017-09-14T09:42:03.593Z," 8740"
2017-09-14T09:46:59.913Z," 6812"
2017-09-14T09:51:56.101Z,17536
2017-09-14T09:56:52.570Z,16416
2017-09-14T10:01:49.883Z,15192
2017-09-14T10:06:45.712Z,10988
2017-09-14T10:11:42.544Z," 8616"
2017-09-14T10:16:39.134Z," 4896"
2017-09-14T10:21:35.058Z," 4720"
2017-09-14T10:26:31.981Z," 4972"
2017-09-14T10:31:27.364Z," 4580"
2017-09-14T10:36:23.554Z," 6496"
2017-09-14T10:41:19.417Z,12352
2017-09-14T10:46:16.035Z," 8728"
2017-09-14T10:51:13.147Z,41696
2017-09-14T10:56:10.716Z,47808
2017-09-14T11:01:08.262Z,50880
2017-09-14T11:06:06.442Z,50560
2017-09-14T11:11:01.877Z,12528
2017-09-14T11:15:57.546Z,14580
2017-09-14T11:20:53.888Z,13516
2017-09-14T11:25:50.559Z,77984
2017-09-14T11:30:47.675Z," 9068"
2017-09-14T11:35:42.924Z,23104
2017-09-14T11:40:38.597Z,19520
2017-09-14T11:45:35.096Z," 7320"
2017-09-14T11:50:30.826Z,12108
2017-09-14T11:55:26.672Z,44000
2017-09-14T12:00:22.550Z," 4444"
2017-09-14T12:05:17.592Z," 4044"
2017-09-14T12:10:14.349Z,21728
2017-09-14T12:15:10.599Z,24960
2017-09-14T12:20:08.866Z,17056
2017-09-14T12:25:05.336Z,11444
2017-09-14T12:30:01.210Z,11044
2017-09-14T12:34:56.797Z," 9004"
2017-09-14T12:39:52.773Z," 6972"
2017-09-14T12:44:48.692Z,12244
2017-09-14T12:49:44.638Z," 5548"
2017-09-14T12:54:40.326Z," 9888"
2017-09-14T12:59:36.235Z," 7152"
2017-09-14T13:04:31.806Z," 3028"
2017-09-14T13:09:28.277Z," 9136"
2017-09-14T13:14:24.223Z,12804
2017-09-14T13:19:21.396Z," 9424"
2017-09-14T13:24:16.871Z," 5064"
2017-09-14T13:29:14.429Z," 6108"
2017-09-14T13:34:10.449Z," 2648"
2017-09-14T13:39:05.634Z," 2120"
2017-09-14T13:44:02.207Z," 1064"
2017-09-14T13:48:57.350Z," 1104"
2017-09-14T13:53:53.821Z," 1144"
2017-09-14T13:58:48.985Z," 1964"
2017-09-14T14:03:44.600Z," 3092"
2017-09-14T14:08:40.391Z," 2208"
2017-09-14T14:13:37.224Z," 2052"
2017-09-14T14:18:32.506Z," 1900"
2017-09-14T14:23:28.240Z," 2644"
2017-09-14T14:28:24.602Z," 3308"
2017-09-14T14:33:20.452Z," 4088"
2017-09-14T14:38:17.393Z," 4360"
2017-09-14T14:43:14.143Z," 2716"
2017-09-14T14:48:09.801Z," 3740"
2017-09-14T14:53:08.155Z," 3368"
2017-09-14T14:58:03.598Z," 3872"
2017-09-14T15:03:01.832Z," 3608"
2017-09-14T15:07:57.773Z," 2224"
2017-09-14T15:12:54.568Z," 1464"
2017-09-14T15:17:49.805Z," 1396"
2017-09-14T15:22:45.463Z,"  596"
2017-09-14T15:27:41.306Z," 1672"
2017-09-14T15:32:36.826Z,"  980"
2017-09-14T15:37:32.598Z,"  740"
2017-09-14T15:42:28.506Z,"  424"
2017-09-14T15:47:25.274Z," 1372"
2017-09-14T15:52:21.831Z," 1052"
2017-09-14T15:57:17.509Z," 1012"
2017-09-14T16:02:14.135Z,"  720"
2017-09-14T16:07:09.595Z,"  572"
2017-09-14T16:12:05.463Z,"  872"
2017-09-14T16:17:01.394Z," 1048"
2017-09-14T16:21:57.295Z,"  772"
2017-09-14T16:26:53.392Z,"  620"
2017-09-14T16:31:49.368Z,"  492"
2017-09-14T16:36:45.354Z,"  316"
2017-09-14T16:41:40.842Z,"  460"
2017-09-14T16:46:36.584Z,"  368"
2017-09-14T16:51:32.837Z,"  292"
2017-09-14T16:56:28.997Z,"  292"
2017-09-14T17:01:25.390Z,"  404"
2017-09-14T17:06:21.264Z,"  388"
2017-09-14T17:11:18.229Z,"  304"
2017-09-14T17:16:13.698Z,"  308"
2017-09-14T17:21:09.349Z,"  164"
2017-09-14T17:26:05.650Z,"  116"
2017-09-14T17:31:01.643Z,"  104"
2017-09-14T17:35:58.592Z,"   48"
2017-09-14T17:40:54.022Z,"   48"
2017-09-14T17:45:52.501Z,"   36"
2017-09-14T17:50:48.906Z,"   28"
2017-09-14T17:55:45.535Z,"   12"
2017-09-14T18:00:42.202Z,"    8"
2017-09-14T18:05:37.753Z,"    4"
2017-09-14T18:10:34.981Z,"    4"
2017-09-14T18:15:30.815Z,"    0"
2017-09-14T18:20:26.547Z,"    0"
2017-09-14T18:25:22.120Z,"    0"
2017-09-14T18:30:18.546Z,"    0"
2017-09-14T18:35:14.027Z,"    0"
2017-09-14T18:40:09.696Z,"    0"
2017-09-14T18:45:05.645Z,"    0"
2017-09-14T18:50:01.410Z,"    0"
2017-09-14T18:54:57.592Z,"    0"
2017-09-14T18:59:53.479Z,"    0"
2017-09-14T19:04:50.205Z,"    0"
2017-09-14T19:09:47.632Z,"    0"
2017-09-14T19:14:45.335Z,"    0"
2017-09-14T19:19:41.205Z,"    0"
2017-09-14T19:24:40.352Z,"    0"
2017-09-14T19:29:38.096Z,"    0"
2017-09-14T19:34:34.305Z,"    0"
2017-09-14T19:39:29.938Z,"    0"
2017-09-14T19:44:26.819Z,"    0"
2017-09-14T19:49:22.386Z,"    0"
2017-09-14T19:54:19.320Z,"    0"
2017-09-14T19:59:16.086Z,"    0"
2017-09-14T20:04:11.791Z,"    0"
2017-09-14T20:09:08.682Z,"    0"
2017-09-14T20:14:05.245Z,"    0"
2017-09-14T20:19:00.725Z,"    0"
2017-09-14T20:23:57.383Z,"    0"
2017-09-14T20:28:53.091Z,"    0"
2017-09-14T20:33:50.874Z,"    0"
2017-09-14T20:38:47.480Z,"    0"
2017-09-14T20:43:42.813Z,"    0"
2017-09-14T20:48:39.655Z,"    0"
2017-09-14T20:53:36.277Z,"    0"
2017-09-14T20:58:32.923Z,"    0"
2017-09-14T21:03:28.702Z,"    0"
2017-09-14T21:08:24.715Z,"    0"
2017-09-14T21:13:22.622Z,"    0"
2017-09-14T21:18:17.809Z,"    0"
2017-09-14T21:23:13.670Z,"    0"
2017-09-14T21:28:10.799Z,"    0"
2017-09-14T21:33:06.343Z,"    0"
2017-09-14T21:38:02.285Z,"    0"
2017-09-14T21:42:58.045Z,"    0"
2017-09-14T21:47:54.090Z,"    0"
2017-09-14T21:52:50.109Z,"    0"
2017-09-14T21:57:45.935Z,"    0"
2017-09-14T22:02:42.885Z,"    0"
2017-09-14T22:07:38.265Z,"    0"
2017-09-14T22:12:33.781Z,"    0"
2017-09-14T22:17:29.755Z,"    0"
2017-09-14T22:22:26.665Z,"    0"
2017-09-14T22:27:21.994Z,"    0"
2017-09-14T22:32:17.623Z,"    0"
2017-09-14T22:37:13.762Z,"    0"
2017-09-14T22:42:09.598Z,"    0"
2017-09-14T22:47:05.266Z,"    0"
2017-09-14T22:52:02.180Z,"    0"
2017-09-14T22:56:57.741Z,"    0"
2017-09-14T23:01:55.286Z,"    0"
2017-09-14T23:06:51.847Z,"    0"
2017-09-14T23:11:47.339Z,"    0"
2017-09-14T23:16:43.143Z,"    0"
2017-09-14T23:21:39.652Z,"    0"
2017-09-14T23:26:36.039Z,"    0"
2017-09-14T23:31:32.296Z,"    0"
2017-09-14T23:36:29.242Z,"    0"
2017-09-14T23:41:24.567Z,"    0"
2017-09-14T23:46:20.907Z,"    0"
2017-09-14T23:51:16.674Z,"    0"
2017-09-14T23:56:13.401Z,"    0"
